Time;durP1;ratioP1;P1;durP2;ratioP2;P2;SDS_P1;SDS_P2;PMS_P1;PMS_P2;Temp;Humidity;BMP_temperature;BMP_pressure;BME280_temperature;BME280_humidity;BME280_pressure;Samples;Min_cycle;Max_cycle;Signal;HPM_P1;HPM_P2
2022/04/13 00:01:56;;;;;;;0.00;0.00;;;12.80;99.90;;;;;;5029260;28;20037;-63
2022/04/13 00:04:22;;;;;;;0.00;0.00;;;12.70;99.90;;;;;;5022464;28;20077;-63
2022/04/13 00:06:48;;;;;;;0.00;0.00;;;12.70;99.90;;;;;;5020742;28;20416;-63
2022/04/13 00:09:13;;;;;;;0.00;0.00;;;12.70;99.90;;;;;;5020288;28;20045;-62
2022/04/13 00:11:39;;;;;;;0.00;0.00;;;13.00;99.90;;;;;;5021020;28;20472;-63
2022/04/13 00:14:05;;;;;;;0.00;0.00;;;12.70;99.90;;;;;;5021346;28;20045;-63
2022/04/13 00:16:31;;;;;;;0.00;0.00;;;12.70;99.90;;;;;;5019831;28;20048;-63
2022/04/13 00:18:56;;;;;;;0.00;0.00;;;12.70;99.90;;;;;;5019945;28;20092;-63
2022/04/13 00:21:22;;;;;;;0.20;0.20;;;12.70;99.90;;;;;;5018678;28;20045;-62
2022/04/13 00:23:47;;;;;;;0.00;0.00;;;12.70;99.90;;;;;;5020795;28;20116;-63
2022/04/13 00:26:13;;;;;;;0.00;0.00;;;12.70;99.90;;;;;;5020045;28;20053;-63
2022/04/13 00:28:39;;;;;;;0.00;0.00;;;12.60;99.90;;;;;;5021346;28;20049;-63
2022/04/13 00:31:05;;;;;;;0.00;0.00;;;12.70;99.90;;;;;;5020575;28;20099;-63
2022/04/13 00:33:32;;;;;;;0.00;0.00;;;12.70;99.90;;;;;;5018888;28;20095;-63
2022/04/13 00:35:58;;;;;;;0.00;0.00;;;12.60;99.90;;;;;;5020750;28;20046;-63
2022/04/13 00:38:23;;;;;;;0.00;0.00;;;12.60;99.90;;;;;;5020457;28;20051;-63
2022/04/13 00:40:49;;;;;;;0.00;0.00;;;12.60;99.90;;;;;;5020614;28;20046;-63
2022/04/13 00:43:15;;;;;;;0.15;0.10;;;12.50;99.90;;;;;;5019322;28;20095;-62
2022/04/13 00:45:48;;;;;;;0.00;0.00;;;13.10;99.90;;;;;;5020528;28;20050;-63
2022/04/13 00:48:25;;;;;;;0.00;0.00;;;12.50;99.90;;;;;;5019200;28;20095;-64
2022/04/13 00:50:51;;;;;;;0.00;0.00;;;12.40;99.90;;;;;;5020410;28;20049;-63
2022/04/13 00:53:18;;;;;;;0.00;0.00;;;12.40;99.90;;;;;;5020268;28;20099;-63
2022/04/13 00:55:45;;;;;;;0.00;0.00;;;12.30;99.90;;;;;;5020506;28;20446;-63
2022/04/13 00:58:15;;;;;;;0.00;0.00;;;12.30;99.90;;;;;;5019531;28;20068;-62
2022/04/13 01:00:48;;;;;;;0.00;0.00;;;12.40;99.90;;;;;;5024525;28;20099;-65
2022/04/13 01:03:19;;;;;;;0.00;0.00;;;12.30;99.90;;;;;;5031678;28;20404;-62
2022/04/13 01:05:46;;;;;;;0.10;0.10;;;12.30;99.90;;;;;;5023319;28;20492;-63
2022/04/13 01:08:13;;;;;;;0.00;0.00;;;12.30;99.90;;;;;;5023445;28;20045;-64
2022/04/13 01:10:42;;;;;;;0.00;0.00;;;12.30;99.90;;;;;;5024523;28;20103;-64
2022/04/13 01:13:08;;;;;;;0.00;0.00;;;12.30;99.90;;;;;;5046106;22;20064;-64
2022/04/13 01:15:34;;;;;;;0.05;0.05;;;12.20;99.90;;;;;;5058804;28;20060;-64
2022/04/13 01:18:01;;;;;;;0.00;0.00;;;12.30;99.90;;;;;;5058688;28;20049;-64
2022/04/13 01:20:26;;;;;;;0.00;0.00;;;12.20;99.90;;;;;;5043469;28;20037;-64
2022/04/13 01:22:52;;;;;;;0.00;0.00;;;12.20;99.90;;;;;;5043248;28;20589;-64
2022/04/13 01:25:18;;;;;;;0.00;0.00;;;12.20;99.90;;;;;;5043065;28;20045;-63
2022/04/13 01:27:43;;;;;;;0.00;0.00;;;12.10;99.90;;;;;;5043554;28;20052;-64
2022/04/13 01:30:11;;;;;;;0.00;0.00;;;12.10;99.90;;;;;;5043577;28;20037;-64
2022/04/13 01:32:36;;;;;;;0.40;0.28;;;12.10;99.90;;;;;;5043706;28;20076;-64
2022/04/13 01:35:03;;;;;;;0.00;0.00;;;12.20;99.90;;;;;;5042522;28;20756;-64
2022/04/13 01:37:28;;;;;;;0.10;0.10;;;12.20;99.90;;;;;;5043079;28;20079;-63
2022/04/13 01:39:54;;;;;;;0.00;0.00;;;12.30;99.90;;;;;;5042944;28;20123;-64
2022/04/13 01:42:20;;;;;;;0.20;0.20;;;12.40;99.90;;;;;;5042637;28;20052;-64
2022/04/13 01:44:47;;;;;;;0.08;0.08;;;12.30;99.90;;;;;;5043307;28;20442;-63
2022/04/13 01:47:13;;;;;;;0.00;0.00;;;12.20;99.90;;;;;;5042841;28;20045;-63
2022/04/13 01:49:38;;;;;;;0.00;0.00;;;12.20;99.90;;;;;;5043031;28;20039;-64
2022/04/13 01:52:05;;;;;;;0.00;0.00;;;12.20;99.90;;;;;;5043120;28;20049;-64
2022/04/13 01:54:31;;;;;;;0.00;0.00;;;12.10;99.90;;;;;;5042829;28;20053;-64
2022/04/13 01:56:57;;;;;;;0.10;0.10;;;12.30;99.90;;;;;;5042647;28;20033;-63
2022/04/13 01:59:23;;;;;;;0.00;0.00;;;12.10;99.90;;;;;;5041536;28;20063;-64
2022/04/13 02:01:50;;;;;;;0.30;0.00;;;12.10;99.90;;;;;;5050181;28;20036;-64
2022/04/13 02:04:20;;;;;;;0.10;0.10;;;12.20;99.90;;;;;;5044904;28;20044;-63
2022/04/13 02:06:47;;;;;;;0.00;0.00;;;12.20;99.90;;;;;;5042636;28;20142;-64
2022/04/13 02:09:14;;;;;;;0.20;0.20;;;12.20;99.90;;;;;;5042504;28;20037;-62
2022/04/13 02:11:39;;;;;;;0.10;0.10;;;12.10;99.90;;;;;;5042521;28;20503;-63
2022/04/13 02:14:06;;;;;;;0.00;0.00;;;12.40;99.90;;;;;;5042639;28;20099;-63
2022/04/13 02:16:31;;;;;;;0.00;0.00;;;12.10;99.90;;;;;;5042457;28;20167;-64
2022/04/13 02:18:57;;;;;;;0.00;0.00;;;12.80;99.90;;;;;;5057591;28;20109;-64
2022/04/13 02:21:22;;;;;;;0.00;0.00;;;12.00;99.90;;;;;;5041788;28;20136;-63
2022/04/13 02:23:48;;;;;;;0.00;0.00;;;12.10;99.90;;;;;;5042625;28;20495;-64
2022/04/13 02:26:13;;;;;;;0.00;0.00;;;12.00;99.90;;;;;;5042061;28;20045;-63
2022/04/13 02:28:40;;;;;;;0.00;0.00;;;11.90;99.90;;;;;;5042631;28;20868;-62
2022/04/13 02:31:05;;;;;;;0.00;0.00;;;12.40;99.90;;;;;;5042179;28;20044;-64
2022/04/13 02:33:31;;;;;;;0.10;0.10;;;11.90;99.90;;;;;;5041570;28;20047;-63
2022/04/13 02:35:58;;;;;;;0.00;0.00;;;11.90;99.90;;;;;;5042445;28;20040;-63
2022/04/13 02:38:25;;;;;;;0.00;0.00;;;11.80;99.90;;;;;;5041245;28;20048;-63
2022/04/13 02:40:50;;;;;;;0.00;0.00;;;11.90;99.90;;;;;;5042078;28;20458;-64
2022/04/13 02:43:16;;;;;;;0.00;0.00;;;11.80;99.90;;;;;;5041908;28;20041;-63
2022/04/13 02:45:42;;;;;;;0.00;0.00;;;11.80;99.90;;;;;;5042449;28;20087;-63
2022/04/13 02:48:11;;;;;;;0.00;0.00;;;11.80;99.90;;;;;;5041202;28;20530;-63
2022/04/13 02:50:37;;;;;;;0.00;0.00;;;11.70;99.90;;;;;;5042523;28;20046;-63
2022/04/13 02:53:02;;;;;;;0.10;0.10;;;11.60;99.90;;;;;;5041751;28;20076;-63
2022/04/13 02:55:29;;;;;;;0.00;0.00;;;11.60;99.90;;;;;;5041215;28;20102;-63
2022/04/13 02:57:54;;;;;;;0.00;0.00;;;11.50;99.90;;;;;;5057417;28;20048;-63
2022/04/13 03:00:20;;;;;;;0.00;0.00;;;11.50;99.90;;;;;;5042285;28;20068;-63
2022/04/13 03:02:46;;;;;;;0.00;0.00;;;11.50;99.90;;;;;;5052389;28;20098;-64
2022/04/13 03:05:11;;;;;;;0.00;0.00;;;11.40;99.90;;;;;;5040999;28;20052;-63
2022/04/13 03:07:37;;;;;;;0.00;0.00;;;11.40;99.90;;;;;;5041886;28;20083;-64
2022/04/13 03:10:04;;;;;;;0.00;0.00;;;11.30;99.90;;;;;;5042086;28;20044;-63
2022/04/13 03:12:29;;;;;;;0.05;0.05;;;11.30;99.90;;;;;;5040713;28;20131;-64
2022/04/13 03:14:55;;;;;;;0.00;0.00;;;11.20;99.90;;;;;;5041509;28;20526;-64
2022/04/13 03:17:21;;;;;;;0.28;0.20;;;11.30;99.90;;;;;;5041133;28;20578;-63
2022/04/13 03:19:46;;;;;;;0.00;0.00;;;11.30;99.90;;;;;;5041216;28;20104;-64
2022/04/13 03:22:12;;;;;;;0.00;0.00;;;11.30;99.90;;;;;;5040360;28;20045;-63
2022/04/13 03:24:38;;;;;;;0.00;0.00;;;11.30;99.90;;;;;;5040302;28;20056;-63
2022/04/13 03:27:03;;;;;;;0.00;0.00;;;11.30;99.90;;;;;;5041572;28;20479;-63
2022/04/13 03:29:29;;;;;;;0.20;0.20;;;11.30;99.90;;;;;;5041406;28;20052;-64
2022/04/13 03:31:55;;;;;;;0.00;0.00;;;11.30;99.90;;;;;;5040766;28;20053;-63
2022/04/13 03:34:20;;;;;;;0.00;0.00;;;11.20;99.90;;;;;;5040162;28;20091;-64
2022/04/13 03:36:47;;;;;;;0.00;0.00;;;11.20;99.90;;;;;;5041363;28;20107;-63
2022/04/13 03:39:14;;;;;;;0.00;0.00;;;11.10;99.90;;;;;;5040811;28;20045;-63
2022/04/13 03:41:40;;;;;;;0.00;0.00;;;11.20;99.90;;;;;;5041647;28;20053;-62
2022/04/13 03:44:06;;;;;;;0.00;0.00;;;11.10;99.90;;;;;;5041279;28;20088;-64
2022/04/13 03:46:32;;;;;;;0.00;0.00;;;11.00;99.90;;;;;;5040769;28;20044;-63
2022/04/13 03:48:58;;;;;;;0.00;0.00;;;10.90;99.90;;;;;;5040029;28;20720;-64
2022/04/13 03:51:24;;;;;;;0.00;0.00;;;10.90;99.90;;;;;;5040703;28;20136;-63
2022/04/13 03:53:50;;;;;;;0.00;0.00;;;10.80;99.90;;;;;;5041163;28;20651;-62
2022/04/13 03:56:15;;;;;;;0.08;0.08;;;10.70;99.90;;;;;;5040149;28;20052;-65
2022/04/13 03:58:41;;;;;;;0.00;0.00;;;10.70;99.90;;;;;;5041132;28;20045;-62
2022/04/13 04:01:12;;;;;;;0.00;0.00;;;11.20;99.90;;;;;;5043837;28;20037;-62
2022/04/13 04:03:38;;;;;;;0.03;0.03;;;10.60;99.90;;;;;;5051658;28;20047;-63
2022/04/13 04:06:04;;;;;;;0.00;0.00;;;10.70;99.90;;;;;;5058990;28;20056;-63
2022/04/13 04:08:32;;;;;;;0.10;0.10;;;10.50;99.90;;;;;;5060654;28;20051;-63
2022/04/13 04:10:58;;;;;;;0.00;0.00;;;10.60;99.90;;;;;;5060895;28;20048;-63
2022/04/13 04:13:24;;;;;;;0.43;0.20;;;10.60;99.90;;;;;;5059788;28;20051;-63
2022/04/13 04:15:50;;;;;;;0.00;0.00;;;10.70;99.90;;;;;;5061060;28;20040;-62
2022/04/13 04:18:15;;;;;;;0.00;0.00;;;10.10;99.90;;;;;;5059795;28;20581;-62
2022/04/13 04:20:41;;;;;;;0.00;0.00;;;10.80;99.90;;;;;;5060731;28;20044;-65
2022/04/13 04:23:07;;;;;;;0.00;0.00;;;10.80;99.90;;;;;;5059312;28;20131;-62
2022/04/13 04:25:33;;;;;;;0.00;0.00;;;10.80;99.90;;;;;;5060597;28;20127;-64
2022/04/13 04:27:58;;;;;;;0.00;0.00;;;10.90;99.90;;;;;;5061050;28;20044;-62
2022/04/13 04:30:24;;;;;;;0.00;0.00;;;11.10;99.90;;;;;;5059717;28;20052;-63
2022/04/13 04:32:50;;;;;;;0.00;0.00;;;10.90;99.90;;;;;;5059887;28;20071;-63
2022/04/13 04:35:15;;;;;;;0.00;0.00;;;10.90;99.90;;;;;;5063185;28;20522;-62
2022/04/13 04:37:41;;;;;;;0.00;0.00;;;10.90;99.90;;;;;;5064622;28;20040;-63
2022/04/13 04:40:07;;;;;;;0.00;0.00;;;11.00;99.90;;;;;;5064382;28;20036;-63
2022/04/13 04:42:46;;;;;;;0.10;0.10;;;11.00;99.90;;;;;;5064056;28;20080;-63
2022/04/13 04:45:13;;;;;;;0.00;0.00;;;11.00;99.90;;;;;;5064209;28;20110;-62
2022/04/13 04:47:39;;;;;;;0.00;0.00;;;11.80;99.90;;;;;;5062071;28;20089;-63
2022/04/13 04:50:06;;;;;;;0.00;0.00;;;11.00;99.90;;;;;;5064526;28;20048;-63
2022/04/13 04:52:31;;;;;;;0.00;0.00;;;11.00;99.90;;;;;;5062405;28;20040;-65
2022/04/13 04:54:59;;;;;;;0.00;0.00;;;11.00;99.90;;;;;;5063663;28;20067;-63
2022/04/13 04:57:24;;;;;;;0.00;0.00;;;11.00;99.90;;;;;;5062190;28;20040;-63
2022/04/13 04:59:50;;;;;;;0.00;0.00;;;11.10;99.90;;;;;;5064025;28;20048;-63
2022/04/13 05:02:15;;;;;;;0.00;0.00;;;11.00;99.90;;;;;;5057203;28;20052;-63
2022/04/13 05:04:41;;;;;;;0.00;0.00;;;11.00;99.90;;;;;;5041473;28;20040;-64
2022/04/13 05:07:07;;;;;;;0.00;0.00;;;11.00;99.90;;;;;;5044860;28;20550;-63
2022/04/13 05:09:32;;;;;;;0.00;0.00;;;11.10;99.90;;;;;;5043928;28;20033;-63
2022/04/13 05:11:58;;;;;;;0.00;0.00;;;11.10;99.90;;;;;;5043195;28;20076;-63
2022/04/13 05:14:25;;;;;;;0.00;0.00;;;11.20;99.90;;;;;;5042906;28;20876;-63
2022/04/13 05:16:50;;;;;;;0.00;0.00;;;11.20;99.90;;;;;;5043757;28;20051;-62
2022/04/13 05:19:16;;;;;;;0.00;0.00;;;11.20;99.90;;;;;;5042964;28;20052;-62
2022/04/13 05:21:42;;;;;;;0.00;0.00;;;11.20;99.90;;;;;;5043280;28;20068;-63
2022/04/13 05:24:08;;;;;;;0.10;0.10;;;11.30;99.90;;;;;;5043800;28;20699;-63
2022/04/13 05:26:33;;;;;;;0.00;0.00;;;11.40;99.90;;;;;;5058487;28;20078;-63
2022/04/13 05:28:59;;;;;;;0.00;0.00;;;11.40;99.90;;;;;;5043797;28;20332;-63
2022/04/13 05:31:25;;;;;;;0.00;0.00;;;11.50;99.90;;;;;;5042565;28;20080;-63
2022/04/13 05:33:50;;;;;;;0.00;0.00;;;11.40;99.90;;;;;;5042953;28;20479;-64
2022/04/13 05:36:16;;;;;;;0.00;0.00;;;11.50;99.90;;;;;;5043180;28;20049;-63
2022/04/13 05:38:42;;;;;;;0.00;0.00;;;11.50;99.90;;;;;;5058676;28;20041;-63
2022/04/13 05:41:08;;;;;;;0.00;0.00;;;11.50;99.90;;;;;;5043648;28;20060;-63
2022/04/13 05:43:35;;;;;;;0.03;0.03;;;11.50;99.90;;;;;;5041562;28;20053;-63
2022/04/13 05:46:02;;;;;;;0.00;0.00;;;11.60;99.90;;;;;;5042270;28;20053;-62
2022/04/13 05:48:27;;;;;;;0.10;0.10;;;11.60;99.90;;;;;;5039986;28;20041;-62
2022/04/13 05:50:53;;;;;;;0.00;0.00;;;11.60;99.90;;;;;;5043579;28;20523;-63
2022/04/13 05:53:18;;;;;;;0.00;0.00;;;11.70;99.90;;;;;;5057605;28;20071;-63
2022/04/13 05:55:44;;;;;;;0.00;0.00;;;11.70;99.90;;;;;;5042586;28;20132;-62
2022/04/13 05:58:10;;;;;;;0.00;0.00;;;11.80;99.90;;;;;;5043057;28;20044;-63
2022/04/13 06:00:39;;;;;;;0.05;0.05;;;11.90;99.90;;;;;;5045331;28;20084;-62
2022/04/13 06:03:05;;;;;;;0.00;0.00;;;11.90;99.90;;;;;;5051480;28;20411;-64
2022/04/13 06:05:30;;;;;;;0.10;0.10;;;12.00;99.90;;;;;;5041868;28;20045;-64
2022/04/13 06:07:56;;;;;;;0.10;0.10;;;12.00;99.90;;;;;;5042925;28;20041;-64
2022/04/13 06:10:22;;;;;;;0.10;0.10;;;12.10;99.90;;;;;;5042545;28;20052;-63
2022/04/13 06:12:48;;;;;;;0.00;0.00;;;12.60;99.90;;;;;;5042255;28;20053;-66
2022/04/13 06:15:14;;;;;;;0.28;0.28;;;12.80;99.90;;;;;;5042086;28;20152;-63
2022/04/13 06:17:40;;;;;;;0.00;0.00;;;12.30;99.90;;;;;;5042127;28;20127;-61
2022/04/13 06:20:07;;;;;;;0.00;0.00;;;12.30;99.90;;;;;;5042935;28;20091;-62
2022/04/13 06:22:41;;;;;;;0.05;0.05;;;12.30;99.90;;;;;;5041606;28;20068;-62
2022/04/13 06:25:07;;;;;;;0.00;0.00;;;12.30;99.90;;;;;;5042862;28;20737;-63
2022/04/13 06:27:33;;;;;;;0.00;0.00;;;12.30;99.90;;;;;;5041798;28;20036;-63
2022/04/13 06:29:59;;;;;;;0.00;0.00;;;12.30;99.90;;;;;;5042285;28;20143;-63
2022/04/13 06:32:35;;;;;;;0.00;0.00;;;12.20;99.90;;;;;;5041379;28;20164;-63
2022/04/13 06:35:02;;;;;;;0.15;0.13;;;12.20;99.90;;;;;;5042341;28;20049;-63
2022/04/13 06:37:27;;;;;;;0.00;0.00;;;12.20;99.90;;;;;;5040250;28;20044;-63
2022/04/13 06:39:53;;;;;;;0.00;0.00;;;12.50;99.90;;;;;;5042480;28;20254;-63
2022/04/13 06:42:22;;;;;;;0.13;0.10;;;12.30;99.90;;;;;;5041424;28;20531;-63
2022/04/13 06:44:49;;;;;;;0.70;0.15;;;12.40;99.90;;;;;;5041565;28;20056;-64
2022/04/13 06:47:14;;;;;;;0.00;0.00;;;12.60;99.90;;;;;;5041173;28;20049;-63
2022/04/13 06:49:40;;;;;;;0.05;0.05;;;13.50;99.90;;;;;;5042389;28;20044;-65
2022/04/13 06:52:06;;;;;;;0.15;0.15;;;13.00;99.90;;;;;;5042723;28;20572;-63
2022/04/13 06:54:32;;;;;;;0.10;0.10;;;13.10;99.90;;;;;;5056484;28;20092;-64
2022/04/13 06:56:57;;;;;;;1.15;0.30;;;13.40;99.90;;;;;;5041073;28;20195;-63
2022/04/13 06:59:23;;;;;;;0.40;0.30;;;13.30;99.90;;;;;;5041095;28;20484;-63
2022/04/13 07:01:48;;;;;;;0.00;0.00;;;13.40;99.90;;;;;;5051174;28;20048;-63
2022/04/13 07:04:14;;;;;;;0.05;0.05;;;13.60;99.90;;;;;;5056283;28;20052;-62
2022/04/13 07:06:40;;;;;;;0.30;0.20;;;13.90;99.90;;;;;;5061520;28;20044;-63
2022/04/13 07:09:05;;;;;;;0.10;0.10;;;13.90;99.90;;;;;;5062035;28;20055;-63
2022/04/13 07:11:31;;;;;;;0.17;0.10;;;13.80;99.90;;;;;;5060239;28;20062;-63
2022/04/13 07:13:56;;;;;;;0.00;0.00;;;13.80;99.90;;;;;;5061028;28;20662;-63
2022/04/13 07:16:22;;;;;;;0.00;0.00;;;13.60;99.90;;;;;;5060958;28;20084;-64
2022/04/13 07:18:48;;;;;;;0.17;0.17;;;13.70;99.90;;;;;;5061128;28;20127;-64
2022/04/13 07:21:13;;;;;;;0.15;0.15;;;14.00;99.90;;;;;;5060201;28;20634;-62
2022/04/13 07:23:39;;;;;;;0.38;0.30;;;14.00;99.90;;;;;;5061342;28;20048;-65
2022/04/13 07:26:04;;;;;;;1.20;0.32;;;14.10;99.90;;;;;;5060060;28;20055;-64
2022/04/13 07:28:30;;;;;;;0.10;0.10;;;14.30;99.90;;;;;;5061032;28;20055;-63
2022/04/13 07:30:56;;;;;;;0.20;0.20;;;14.40;99.90;;;;;;5060846;28;20521;-63
2022/04/13 07:33:21;;;;;;;0.20;0.10;;;14.40;99.90;;;;;;5059681;28;20529;-63
2022/04/13 07:35:47;;;;;;;0.13;0.13;;;14.70;99.90;;;;;;5061298;28;20131;-63
2022/04/13 07:38:13;;;;;;;0.10;0.10;;;14.80;99.90;;;;;;5060691;28;20072;-62
2022/04/13 07:40:38;;;;;;;0.00;0.00;;;15.10;99.90;;;;;;5061256;28;20041;-65
2022/04/13 07:43:06;;;;;;;0.10;0.03;;;15.30;99.90;;;;;;5059720;28;20052;-63
2022/04/13 07:45:31;;;;;;;0.25;0.25;;;15.60;99.90;;;;;;5060348;28;20037;-62
2022/04/13 07:47:57;;;;;;;0.15;0.10;;;15.50;99.90;;;;;;5059882;28;20524;-63
2022/04/13 07:50:23;;;;;;;0.00;0.00;;;15.60;99.90;;;;;;5060847;28;20097;-61
2022/04/13 07:52:49;;;;;;;0.00;0.00;;;15.60;99.90;;;;;;5060789;28;20087;-64
2022/04/13 07:55:15;;;;;;;0.17;0.17;;;15.90;99.90;;;;;;5059891;28;20068;-62
2022/04/13 07:57:41;;;;;;;0.00;0.00;;;15.90;99.90;;;;;;5061225;28;20045;-63
2022/04/13 08:00:12;;;;;;;0.10;0.10;;;16.00;99.90;;;;;;5061296;28;20078;-63
2022/04/13 08:02:39;;;;;;;0.45;0.45;;;15.90;99.90;;;;;;5048984;28;20056;-63
2022/04/13 08:05:05;;;;;;;0.70;0.55;;;15.90;99.90;;;;;;5060823;28;20040;-61
2022/04/13 08:07:31;;;;;;;0.05;0.05;;;16.00;99.90;;;;;;5060373;28;20045;-63
2022/04/13 08:09:56;;;;;;;0.10;0.05;;;16.20;99.90;;;;;;5065433;28;20048;-63
2022/04/13 08:12:22;;;;;;;0.35;0.25;;;16.20;99.90;;;;;;5066360;28;20044;-63
2022/04/13 08:14:48;;;;;;;0.00;0.00;;;16.20;99.90;;;;;;5067440;28;20566;-62
2022/04/13 08:17:14;;;;;;;1.23;0.15;;;16.40;99.90;;;;;;5066422;28;20044;-62
2022/04/13 08:19:39;;;;;;;0.50;0.50;;;16.20;99.90;;;;;;5066365;28;20055;-62
2022/04/13 08:22:05;;;;;;;0.20;0.20;;;16.10;99.90;;;;;;5067232;28;20119;-63
2022/04/13 08:24:31;;;;;;;1.00;0.20;;;15.90;99.90;;;;;;5066893;28;20094;-65
2022/04/13 08:26:59;;;;;;;0.22;0.17;;;15.70;99.90;;;;;;5067348;28;20296;-63
2022/04/13 08:29:26;;;;;;;0.00;0.00;;;15.70;99.90;;;;;;5066338;28;20037;-63
2022/04/13 08:31:51;;;;;;;0.10;0.10;;;15.70;99.90;;;;;;5065310;28;20044;-66
2022/04/13 08:34:17;;;;;;;0.00;0.00;;;15.80;99.90;;;;;;5066884;28;20052;-65
2022/04/13 08:36:42;;;;;;;0.00;0.00;;;15.60;99.90;;;;;;5066129;28;20543;-63
2022/04/13 08:39:13;;;;;;;0.10;0.10;;;15.90;99.90;;;;;;5066873;28;20079;-62
2022/04/13 08:41:54;;;;;;;0.00;0.00;;;15.90;99.90;;;;;;5067367;28;20410;-64
2022/04/13 08:44:39;;;;;;;0.15;0.15;;;15.90;99.90;;;;;;5065654;28;20040;-64
2022/04/13 08:47:12;;;;;;;0.00;0.00;;;15.80;99.90;;;;;;5066279;28;20090;-64
2022/04/13 08:49:40;;;;;;;0.00;0.00;;;16.00;99.90;;;;;;5066824;28;20120;-63
2022/04/13 08:52:08;;;;;;;0.00;0.00;;;15.90;99.90;;;;;;5067031;28;20147;-63
2022/04/13 08:54:55;;;;;;;0.00;0.00;;;16.10;99.90;;;;;;5066617;28;20135;-64
2022/04/13 08:57:25;;;;;;;0.00;0.00;;;16.10;99.90;;;;;;5065763;28;20041;-63
2022/04/13 09:00:13;;;;;;;0.00;0.00;;;16.20;99.90;;;;;;5065961;28;20542;-63
2022/04/13 09:02:47;;;;;;;0.00;0.00;;;15.70;99.90;;;;;;5054628;28;20119;-64
2022/04/13 09:05:18;;;;;;;0.05;0.03;;;15.60;99.90;;;;;;5066418;28;20055;-64
2022/04/13 09:07:46;;;;;;;0.73;0.73;;;15.40;99.90;;;;;;5066696;28;20090;-70
2022/04/13 09:10:18;;;;;;;0.00;0.00;;;15.60;99.90;;;;;;5065919;28;20045;-63
2022/04/13 09:12:45;;;;;;;0.00;0.00;;;15.80;99.90;;;;;;5066478;28;20087;-63
2022/04/13 09:15:13;;;;;;;0.00;0.00;;;16.10;99.90;;;;;;5066554;28;20059;-62
2022/04/13 09:17:38;;;;;;;0.00;0.00;;;16.40;99.90;;;;;;5060580;28;20048;-62
2022/04/13 09:20:04;;;;;;;0.00;0.00;;;16.30;99.90;;;;;;5064708;28;20071;-62
2022/04/13 09:22:31;;;;;;;0.32;0.15;;;16.30;99.90;;;;;;5061013;28;20542;-63
2022/04/13 09:24:57;;;;;;;0.03;0.03;;;16.50;99.90;;;;;;5062442;28;20392;-64
2022/04/13 09:27:24;;;;;;;0.00;0.00;;;16.70;99.90;;;;;;5062505;28;20553;-62
2022/04/13 09:29:50;;;;;;;0.10;0.10;;;16.80;99.90;;;;;;5063490;28;20040;-63
2022/04/13 09:32:17;;;;;;;0.00;0.00;;;16.80;99.90;;;;;;5061990;28;20109;-63
2022/04/13 09:34:43;;;;;;;0.03;0.03;;;16.90;99.90;;;;;;5062220;28;20044;-64
2022/04/13 09:37:10;;;;;;;0.00;0.00;;;17.00;99.90;;;;;;5063538;28;20589;-63
2022/04/13 09:39:36;;;;;;;0.00;0.00;;;17.00;99.90;;;;;;5062982;28;20127;-63
2022/04/13 09:42:03;;;;;;;0.00;0.00;;;17.30;99.90;;;;;;5062496;28;20041;-63
2022/04/13 09:44:30;;;;;;;0.10;0.10;;;17.20;99.90;;;;;;5060748;28;20093;-63
2022/04/13 09:47:10;;;;;;;0.30;0.20;;;17.30;99.90;;;;;;5062580;28;20495;-63
2022/04/13 09:49:46;;;;;;;0.00;0.00;;;17.30;99.90;;;;;;5062823;28;20438;-64
2022/04/13 09:52:12;;;;;;;0.05;0.05;;;17.40;99.90;;;;;;5062695;28;20044;-64
2022/04/13 09:54:48;;;;;;;0.10;0.10;;;17.60;99.90;;;;;;5062945;28;20572;-64
2022/04/13 09:57:25;;;;;;;0.10;0.10;;;17.50;99.90;;;;;;5060811;28;20095;-63
2022/04/13 10:00:01;;;;;;;0.20;0.20;;;17.70;99.90;;;;;;5061496;28;20044;-63
2022/04/13 10:02:35;;;;;;;0.08;0.08;;;17.80;99.90;;;;;;5053363;28;20059;-63
2022/04/13 10:05:02;;;;;;;0.10;0.10;;;17.90;99.90;;;;;;5042773;28;20116;-62
2022/04/13 10:07:28;;;;;;;0.00;0.00;;;17.90;99.90;;;;;;5042595;28;20056;-59
2022/04/13 10:09:55;;;;;;;0.00;0.00;;;17.90;99.90;;;;;;5042030;28;20698;-59
2022/04/13 10:12:20;;;;;;;0.90;0.22;;;17.90;99.90;;;;;;5041965;28;20132;-59
2022/04/13 10:14:46;;;;;;;0.00;0.00;;;18.10;99.90;;;;;;5042080;28;20492;-62
2022/04/13 10:17:14;;;;;;;0.00;0.00;;;18.40;99.90;;;;;;5042068;28;20075;-62
2022/04/13 10:19:40;;;;;;;0.10;0.10;;;18.70;99.90;;;;;;5042633;28;20075;-61
2022/04/13 10:22:06;;;;;;;0.13;0.13;;;18.30;99.90;;;;;;5043257;28;20033;-62
2022/04/13 10:24:34;;;;;;;0.10;0.10;;;18.40;99.90;;;;;;5042089;28;20040;-62
2022/04/13 10:27:03;;;;;;;0.30;0.22;;;18.30;99.90;;;;;;5041594;28;20049;-63
2022/04/13 10:29:31;;;;;;;0.00;0.00;;;18.40;99.90;;;;;;5041862;28;20052;-62
2022/04/13 10:32:03;;;;;;;0.00;0.00;;;18.80;99.90;;;;;;5041543;28;20187;-62
2022/04/13 10:34:31;;;;;;;0.38;0.38;;;19.10;99.90;;;;;;5041432;28;20099;-63
2022/04/13 10:36:57;;;;;;;0.00;0.00;;;19.20;99.90;;;;;;5042264;28;20041;-62
2022/04/13 10:39:23;;;;;;;0.52;0.22;;;19.30;99.90;;;;;;5041906;28;20176;-62
2022/04/13 10:41:48;;;;;;;0.00;0.00;;;19.10;99.90;;;;;;5041366;28;20049;-62
2022/04/13 10:44:22;;;;;;;0.40;0.10;;;19.20;99.90;;;;;;5041924;28;20045;-62
2022/04/13 10:46:50;;;;;;;0.00;0.00;;;19.20;99.90;;;;;;5041352;28;20086;-62
2022/04/13 10:49:20;;;;;;;0.08;0.08;;;19.00;99.90;;;;;;5041014;28;20550;-62
2022/04/13 10:51:52;;;;;;;0.00;0.00;;;19.20;99.90;;;;;;5057197;28;20044;-63
2022/04/13 10:54:21;;;;;;;0.20;0.20;;;19.60;99.90;;;;;;5040081;28;20284;-62
2022/04/13 10:56:50;;;;;;;0.00;0.00;;;19.80;99.90;;;;;;5041210;28;20098;-62
2022/04/13 10:59:24;;;;;;;0.00;0.00;;;19.90;99.90;;;;;;5041528;28;20048;-64
2022/04/13 11:02:10;;;;;;;0.03;0.03;;;19.80;99.90;;;;;;5048854;28;20522;-62
2022/04/13 11:04:37;;;;;;;1.42;0.73;;;19.60;99.90;;;;;;5042762;28;20811;-62
2022/04/13 11:07:04;;;;;;;0.17;0.17;;;19.50;99.90;;;;;;5056632;28;20051;-62
2022/04/13 11:09:39;;;;;;;0.00;0.00;;;19.40;99.90;;;;;;5039631;28;20976;-63
2022/04/13 11:12:05;;;;;;;0.00;0.00;;;19.50;99.90;;;;;;5041643;28;20399;-63
2022/04/13 11:14:44;;;;;;;0.15;0.13;;;19.70;99.90;;;;;;5055732;28;20721;-64
2022/04/13 11:17:16;;;;;;;0.00;0.00;;;19.90;99.90;;;;;;5039992;28;20059;-63
2022/04/13 11:19:42;;;;;;;0.10;0.10;;;20.20;99.90;;;;;;5041816;28;20047;-63
2022/04/13 11:22:11;;;;;;;0.10;0.10;;;20.30;99.90;;;;;;5041912;28;20052;-62
2022/04/13 11:24:45;;;;;;;0.13;0.10;;;20.30;99.90;;;;;;5056108;28;20073;-62
2022/04/13 11:27:11;;;;;;;0.17;0.17;;;19.90;99.90;;;;;;5041235;28;20127;-63
2022/04/13 11:29:56;;;;;;;0.10;0.10;;;19.70;99.90;;;;;;5041557;28;20132;-61
2022/04/13 11:32:25;;;;;;;0.03;0.03;;;19.70;99.90;;;;;;5040388;28;20045;-61
2022/04/13 11:34:51;;;;;;;0.90;0.40;;;19.60;99.90;;;;;;5041307;28;20056;-63
2022/04/13 11:37:25;;;;;;;0.17;0.17;;;19.70;99.90;;;;;;5040542;28;20057;-62
2022/04/13 11:40:03;;;;;;;0.17;0.10;;;19.30;99.90;;;;;;5041016;28;20112;-64
2022/04/13 11:42:48;;;;;;;0.90;0.32;;;19.20;99.90;;;;;;5040540;28;20091;-63
2022/04/13 11:45:15;;;;;;;1.08;0.73;;;19.20;99.90;;;;;;5055757;28;20491;-63
2022/04/13 11:48:03;;;;;;;0.00;0.00;;;19.20;99.90;;;;;;5040414;28;20037;-63
2022/04/13 11:50:36;;;;;;;0.45;0.45;;;19.10;99.90;;;;;;5040432;28;20049;-63
2022/04/13 11:53:01;;;;;;;0.03;0.03;;;19.10;99.90;;;;;;5040896;28;20045;-64
2022/04/13 11:55:39;;;;;;;0.00;0.00;;;19.00;99.90;;;;;;5040656;28;20488;-64
2022/04/13 11:58:06;;;;;;;0.00;0.00;;;19.10;99.90;;;;;;5041109;28;20134;-64
2022/04/13 12:00:43;;;;;;;0.00;0.00;;;19.20;99.90;;;;;;5042016;28;20076;-63
2022/04/13 12:03:09;;;;;;;0.05;0.05;;;19.10;99.90;;;;;;5048499;28;20163;-64
2022/04/13 12:05:37;;;;;;;0.00;0.00;;;19.00;99.90;;;;;;5041156;28;20391;-64
2022/04/13 12:08:28;;;;;;;0.00;0.00;;;18.90;99.90;;;;;;5041132;28;20040;-63
2022/04/13 12:10:59;;;;;;;0.00;0.00;;;18.50;99.90;;;;;;5039101;28;20057;-64
2022/04/13 12:13:27;;;;;;;0.00;0.00;;;18.40;99.90;;;;;;5039885;28;20060;-64
2022/04/13 12:15:55;;;;;;;0.00;0.00;;;18.30;99.90;;;;;;5040151;28;20049;-63
2022/04/13 12:18:22;;;;;;;0.00;0.00;;;18.30;99.90;;;;;;5039512;28;20036;-64
2022/04/13 12:20:49;;;;;;;0.00;0.00;;;18.20;99.90;;;;;;5040825;28;20049;-63
2022/04/13 12:23:21;;;;;;;0.00;0.00;;;18.20;99.90;;;;;;5039901;28;20040;-64
2022/04/13 12:25:49;;;;;;;0.47;0.47;;;17.90;99.90;;;;;;5040945;28;20057;-64
2022/04/13 12:28:16;;;;;;;0.10;0.10;;;18.10;99.90;;;;;;5040237;28;20037;-63
2022/04/13 12:30:42;;;;;;;0.08;0.08;;;18.10;99.90;;;;;;5055599;28;20076;-64
2022/04/13 12:33:22;;;;;;;0.00;0.00;;;18.10;99.90;;;;;;5055364;28;20495;-62
2022/04/13 12:36:00;;;;;;;0.00;0.00;;;18.20;99.90;;;;;;5040534;28;20116;-63
2022/04/13 12:38:30;;;;;;;0.00;0.00;;;18.50;99.90;;;;;;5039994;28;20045;-62
2022/04/13 12:41:07;;;;;;;0.00;0.00;;;18.40;99.90;;;;;;5040820;28;20044;-62
2022/04/13 12:43:33;;;;;;;0.00;0.00;;;18.50;99.90;;;;;;5055121;28;20123;-63
2022/04/13 12:46:12;;;;;;;0.00;0.00;;;18.60;99.90;;;;;;5040880;28;20045;-62
2022/04/13 12:48:38;;;;;;;0.00;0.00;;;18.50;99.90;;;;;;5055612;28;20610;-62
2022/04/13 12:51:06;;;;;;;0.00;0.00;;;18.50;99.90;;;;;;5039612;28;20052;-63